M I D A S
Marine Information and Data Acquisition System
Tripno 2089 of the Zeeleeuw from 2010-11-26 08:59:12 to 2010-11-26 16:08:00
Back to CruiseResearch ActivitiesStationsMapUnderway DataData graphs

EquipmentUnitsComment
TimeDGPSUTC
LatitudeDGPSDM.mWGS84
LongitudeDGPSDM.mWGS84
HeadingGyrodeg 
SOGDGPSknotsSpeed over ground
COGDGPSdegCourse over ground
DepthEcho soundermeters200 kHz
Missing or incorrect values are displayed as -999
Navigation data collected by the RV Zeeleeuw from 2010-11-26 07:58:40 to 2010-11-29 12:37:09
                                                                                    Next 1000 lines
Time Latitude Longitude Heading SOG COG Depth
2010-11-26 07:58:51 51°13.662 2°55.959 118 -999 204 7
2010-11-26 07:58:55 51°13.662 2°55.959 118 0.1 242 6.9
2010-11-26 07:59:00 51°13.662 2°55.959 117.7 -999 219 6.9
2010-11-26 07:59:06 51°13.661 2°55.959 117.6 0.1 199 6.9
2010-11-26 07:59:11 51°13.661 2°55.959 117.5 -999 207 6.9
2010-11-26 07:59:15 51°13.661 2°55.959 117.2 -999 176 -999
2010-11-26 07:59:21 51°13.661 2°55.959 116.9 -999 203 6.9
2010-11-26 07:59:26 51°13.661 2°55.959 116.4 -999 213 6.9
2010-11-26 07:59:31 51°13.661 2°55.959 116.2 -999 218 6.9
2010-11-26 07:59:35 51°13.661 2°55.959 115.6 -999 209 6.9
2010-11-26 07:59:41 51°13.661 2°55.959 115.2 -999 183 7
2010-11-26 07:59:46 51°13.661 2°55.959 114.9 -999 206 6.9
2010-11-26 07:59:51 51°13.661 2°55.959 114.5 -999 218 6.9
2010-11-26 07:59:55 51°13.661 2°55.959 114.1 0.1 216 6.9
2010-11-26 08:00:01 51°13.661 2°55.959 113.8 -999 235 6.9
2010-11-26 08:00:05 51°13.661 2°55.959 113.2 -999 193 6.9
2010-11-26 08:00:11 51°13.661 2°55.958 112.7 -999 191 6.9
2010-11-26 08:00:15 51°13.661 2°55.958 112 -999 198 6.9
2010-11-26 08:00:20 51°13.661 2°55.958 111.6 0.1 212 6.9
2010-11-26 08:00:26 51°13.661 2°55.959 111.1 -999 213 6.9
2010-11-26 08:00:31 51°13.661 2°55.959 110.6 -999 107 6.9
2010-11-26 08:00:35 51°13.662 2°55.959 110.4 0.1 338 6.9
2010-11-26 08:00:40 51°13.662 2°55.958 110.3 0.4 308 6.9
2010-11-26 08:00:46 51°13.663 2°55.956 110.7 0.8 305 7
2010-11-26 08:00:51 51°13.664 2°55.953 111.2 1.4 303 6.9
2010-11-26 08:00:55 51°13.664 2°55.95 111.4 1.9 298 7
2010-11-26 08:01:00 51°13.666 2°55.945 111.1 2.5 299 7.1
2010-11-26 08:01:06 51°13.668 2°55.938 110.8 3 296 -999
2010-11-26 08:01:12 51°13.671 2°55.93 110.5 3.4 297 -999
2010-11-26 08:01:18 51°13.674 2°55.921 110.5 3.8 296 -999
2010-11-26 08:01:23 51°13.676 2°55.913 110.9 4.1 297 -999
2010-11-26 08:01:29 51°13.68 2°55.903 110.9 4.3 297 -999
2010-11-26 08:01:34 51°13.683 2°55.894 110.1 4.6 296 -999
2010-11-26 08:01:39 51°13.685 2°55.885 108.7 4.7 295 -999
2010-11-26 08:01:44 51°13.688 2°55.875 107 4.8 294 -999
2010-11-26 08:01:49 51°13.69 2°55.865 105.6 4.8 293 4.7
2010-11-26 08:01:54 51°13.693 2°55.855 103.7 4.8 291 -999
2010-11-26 08:01:59 51°13.695 2°55.845 102.1 4.8 290 -999
2010-11-26 08:02:04 51°13.697 2°55.836 99.6 4.7 289 8.1
2010-11-26 08:02:09 51°13.699 2°55.826 98 4.6 287 -999
2010-11-26 08:02:14 51°13.701 2°55.816 95.5 4.5 285 -999
2010-11-26 08:02:19 51°13.702 2°55.807 93.3 4.4 285 -999
2010-11-26 08:02:24 51°13.704 2°55.798 91.4 4.2 284 -999
2010-11-26 08:02:29 51°13.705 2°55.79 89.4 4 282 10.4
2010-11-26 08:02:34 51°13.706 2°55.781 87.7 3.9 281 10.9
2010-11-26 08:02:39 51°13.707 2°55.773 85.9 3.8 280 11.3
2010-11-26 08:02:44 51°13.708 2°55.765 84.3 3.6 279 11.8
2010-11-26 08:02:49 51°13.709 2°55.758 82.1 3.4 278 12.2
2010-11-26 08:02:54 51°13.709 2°55.751 79.8 3.3 276 12.7
2010-11-26 08:02:58 51°13.709 2°55.746 77.3 3.1 276 13
2010-11-26 08:03:03 51°13.71 2°55.74 74.7 2.8 275 13
2010-11-26 08:03:08 51°13.71 2°55.735 71.9 2.2 278 12.4
2010-11-26 08:03:13 51°13.71 2°55.732 68.3 1.6 283 12.1
2010-11-26 08:03:18 51°13.711 2°55.729 63.6 1.3 289 11.9
2010-11-26 08:03:23 51°13.711 2°55.727 57.8 1.1 293 11.6
2010-11-26 08:03:27 51°13.712 2°55.725 52.5 1.1 297 11.4
2010-11-26 08:03:32 51°13.713 2°55.724 48 1 305 11.3
2010-11-26 08:03:37 51°13.714 2°55.722 43.8 1 308 11.3
2010-11-26 08:03:42 51°13.715 2°55.72 40 0.9 313 11.3
2010-11-26 08:03:47 51°13.716 2°55.719 36.6 1 319 11.2
2010-11-26 08:03:51 51°13.717 2°55.718 33.2 1 320 11.1
2010-11-26 08:03:56 51°13.718 2°55.717 29.1 1 325 10.9
2010-11-26 08:04:01 51°13.719 2°55.715 26.3 1.1 331 11
2010-11-26 08:04:06 51°13.721 2°55.714 22.7 1.2 333 11.1
2010-11-26 08:04:11 51°13.723 2°55.712 18.5 1.3 334 11.1
2010-11-26 08:04:16 51°13.725 2°55.711 14 1.4 336 11.2
2010-11-26 08:04:21 51°13.727 2°55.71 9.4 1.6 336 11.2
2010-11-26 08:04:26 51°13.729 2°55.708 4.6 1.7 336 11.2
2010-11-26 08:04:31 51°13.731 2°55.706 359.1 1.9 334 11.3
2010-11-26 08:04:36 51°13.734 2°55.704 354.1 2.1 333 11.3
2010-11-26 08:04:41 51°13.737 2°55.702 349 2.2 331 11.3
2010-11-26 08:04:46 51°13.74 2°55.699 345.2 2.5 331 11.3
2010-11-26 08:04:51 51°13.743 2°55.696 341.3 2.8 330 11.3
2010-11-26 08:04:55 51°13.746 2°55.693 339 3.3 330 11.4
2010-11-26 08:05:00 51°13.751 2°55.689 337.6 3.7 330 11
2010-11-26 08:05:06 51°13.757 2°55.683 336.7 4.2 330 10.9
2010-11-26 08:05:11 51°13.763 2°55.678 336.6 4.6 331 10.9
2010-11-26 08:05:15 51°13.768 2°55.674 336.9 5.1 331 10.9
2010-11-26 08:05:21 51°13.776 2°55.667 336.9 5.5 332 10.8
2010-11-26 08:05:26 51°13.784 2°55.661 336.9 5.9 332 -999
2010-11-26 08:05:31 51°13.791 2°55.655 337.6 6.3 334 10.8
2010-11-26 08:05:37 51°13.802 2°55.648 338.2 6.7 335 -999
2010-11-26 08:05:43 51°13.813 2°55.641 339 7.2 337 -999
2010-11-26 08:05:47 51°13.821 2°55.636 339.1 7.6 338 10.7
2010-11-26 08:05:53 51°13.833 2°55.628 339 8.2 338 10.9
2010-11-26 08:05:58 51°13.844 2°55.621 338.8 8.6 339 10.9
2010-11-26 08:06:03 51°13.855 2°55.614 338.7 8.9 339 11
2010-11-26 08:06:07 51°13.865 2°55.608 338.2 9.1 338 11.1
2010-11-26 08:06:12 51°13.877 2°55.601 338.2 9.4 340 10.7
2010-11-26 08:06:17 51°13.889 2°55.593 338.7 9.6 339 11
2010-11-26 08:06:22 51°13.902 2°55.586 338.4 9.8 338 11
2010-11-26 08:06:27 51°13.915 2°55.577 338.2 10 338 11
2010-11-26 08:06:31 51°13.925 2°55.571 338 10.1 338 10.8
2010-11-26 08:06:36 51°13.938 2°55.562 337.9 10.2 338 10.9
2010-11-26 08:06:42 51°13.954 2°55.551 337.6 10.3 337 10.9
2010-11-26 08:06:47 51°13.967 2°55.543 337.2 10.3 337 10.9
2010-11-26 08:06:51 51°13.978 2°55.536 337.2 10.3 338 10.8
2010-11-26 08:06:56 51°13.992 2°55.527 336.9 10.4 337 10.7
2010-11-26 08:07:01 51°14.005 2°55.519 336.8 10.4 338 10.7
2010-11-26 08:07:06 51°14.018 2°55.51 336.7 10.4 337 10.4
2010-11-26 08:07:11 51°14.031 2°55.501 335.9 10.4 337 10.1
2010-11-26 08:07:15 51°14.042 2°55.494 335.8 10.5 337 10.4
2010-11-26 08:07:21 51°14.058 2°55.482 335.3 10.5 336 10.5
2010-11-26 08:07:26 51°14.071 2°55.473 334.5 10.5 335 10.5
2010-11-26 08:07:31 51°14.085 2°55.463 334.4 10.5 335 10.5
2010-11-26 08:07:35 51°14.095 2°55.455 333.6 10.5 334 10.4
2010-11-26 08:07:40 51°14.108 2°55.444 333.1 10.5 333 10.4
2010-11-26 08:07:45 51°14.121 2°55.434 332.8 10.5 333 10.4
2010-11-26 08:07:51 51°14.137 2°55.421 332.4 10.5 332 10.4
2010-11-26 08:07:55 51°14.147 2°55.412 331.6 10.5 332 10.5
2010-11-26 08:08:01 51°14.162 2°55.398 331.1 10.5 331 10.5
2010-11-26 08:08:05 51°14.172 2°55.39 331.1 10.5 331 10.4
2010-11-26 08:08:11 51°14.188 2°55.376 330.6 10.5 330 10.4
2010-11-26 08:08:15 51°14.198 2°55.366 329.6 10.5 329 10.3
2010-11-26 08:08:20 51°14.21 2°55.354 329 10.6 329 10.3
2010-11-26 08:08:26 51°14.225 2°55.339 328.9 10.5 328 10.2
2010-11-26 08:08:31 51°14.238 2°55.328 328.9 10.5 329 10.2
2010-11-26 08:08:35 51°14.247 2°55.318 328.9 10.6 329 10.2
2010-11-26 08:08:40 51°14.26 2°55.306 328.7 10.5 329 10.3
2010-11-26 08:08:46 51°14.275 2°55.292 329.2 10.6 330 10.3
2010-11-26 08:08:51 51°14.288 2°55.28 329.5 10.6 329 10.2
2010-11-26 08:08:55 51°14.298 2°55.27 329.5 10.6 329 10.1
2010-11-26 08:09:01 51°14.313 2°55.256 329.3 10.6 329 10.2
2010-11-26 08:09:06 51°14.326 2°55.244 329.1 10.7 330 10.2
2010-11-26 08:09:11 51°14.339 2°55.233 329.4 10.6 330 10.1
2010-11-26 08:09:15 51°14.349 2°55.224 330.1 10.6 330 10.2
2010-11-26 08:09:21 51°14.364 2°55.209 330.3 10.7 330 9.5
2010-11-26 08:09:26 51°14.377 2°55.198 330.5 10.8 330 10.1
2010-11-26 08:09:31 51°14.391 2°55.185 330.4 11 330 9.8
2010-11-26 08:09:35 51°14.401 2°55.175 329.8 11.1 329 10.1
2010-11-26 08:09:40 51°14.415 2°55.163 330.3 11.2 330 10.1
2010-11-26 08:09:46 51°14.431 2°55.148 330.3 11.2 329 10.4
2010-11-26 08:09:51 51°14.444 2°55.135 330 11.3 329 10.3
2010-11-26 08:09:55 51°14.455 2°55.124 329.5 11.4 329 9.5
2010-11-26 08:10:00 51°14.468 2°55.111 328.7 11.5 328 10.2
2010-11-26 08:10:05 51°14.482 2°55.097 328.4 11.6 328 10.4
2010-11-26 08:10:11 51°14.498 2°55.079 327.4 11.8 325 10.2
2010-11-26 08:10:15 51°14.508 2°55.067 325.8 11.9 325 10.1
2010-11-26 08:10:20 51°14.522 2°55.052 325.2 12 324 10.2
2010-11-26 08:10:25 51°14.535 2°55.036 324.5 12 323 10.6
2010-11-26 08:10:31 51°14.552 2°55.016 324.2 12.2 323 10.9
2010-11-26 08:10:35 51°14.562 2°55.003 324.5 12.3 323 10.7
2010-11-26 08:10:40 51°14.577 2°54.987 325.4 12.5 323 10.7
2010-11-26 08:10:45 51°14.59 2°54.97 326 12.5 323 10.6
2010-11-26 08:10:51 51°14.607 2°54.948 325.2 12.7 320 10.8
2010-11-26 08:10:55 51°14.617 2°54.933 324.1 12.8 319 10.6
2010-11-26 08:11:01 51°14.633 2°54.911 323.1 12.9 318 10.3
2010-11-26 08:11:06 51°14.645 2°54.89 321.6 13 314 10.4
2010-11-26 08:11:11 51°14.658 2°54.869 319.6 13 314 10.3
2010-11-26 08:11:15 51°14.668 2°54.852 318.8 13 314 10.6
2010-11-26 08:11:21 51°14.683 2°54.828 319.4 13 315 10.7
2010-11-26 08:11:26 51°14.696 2°54.807 319.5 13 315 10.7
2010-11-26 08:11:31 51°14.709 2°54.788 320.9 13 317 10.4
2010-11-26 08:11:35 51°14.719 2°54.773 322 12.9 317 11.2
2010-11-26 08:11:41 51°14.735 2°54.749 322.1 12.9 316 10.6
2010-11-26 08:11:46 51°14.748 2°54.729 321.8 12.8 317 10.5
2010-11-26 08:11:51 51°14.761 2°54.709 321.9 12.9 316 10.5
2010-11-26 08:11:55 51°14.771 2°54.694 321.6 12.8 316 10.6
2010-11-26 08:12:00 51°14.784 2°54.674 321.3 12.9 316 10.9
2010-11-26 08:12:06 51°14.8 2°54.651 321.7 12.9 317 11.1
2010-11-26 08:12:11 51°14.813 2°54.63 321.4 13 315 11.5
2010-11-26 08:12:15 51°14.823 2°54.615 320.6 12.9 316 10.8
2010-11-26 08:12:21 51°14.838 2°54.591 321 12.9 316 10.4
2010-11-26 08:12:26 51°14.851 2°54.571 321.4 12.8 316 10.7
2010-11-26 08:12:31 51°14.864 2°54.551 320.2 13 314 11.2
2010-11-26 08:12:35 51°14.875 2°54.535 319.9 13.1 316 11
2010-11-26 08:12:40 51°14.888 2°54.514 320.4 13.2 316 10.6
2010-11-26 08:12:45 51°14.901 2°54.494 320.2 13.2 316 10.5
2010-11-26 08:12:51 51°14.917 2°54.471 320.8 13.2 318 10.3
2010-11-26 08:12:55 51°14.928 2°54.455 321.7 13.2 318 10.5
2010-11-26 08:13:00 51°14.942 2°54.436 322.3 13.2 319 10.1
2010-11-26 08:13:06 51°14.959 2°54.414 324.4 13.2 322 8.9
2010-11-26 08:13:11 51°14.973 2°54.397 326 12.8 322 7.9
2010-11-26 08:13:15 51°14.984 2°54.384 326.9 12.6 323 8.3
2010-11-26 08:13:21 51°15.001 2°54.364 327.6 12.4 323 7.9
2010-11-26 08:13:26 51°15.015 2°54.348 327.8 12.5 324 -999
2010-11-26 08:13:31 51°15.029 2°54.332 328.5 12.5 324 7.9
2010-11-26 08:13:35 51°15.04 2°54.318 328.6 12.6 324 8.2
2010-11-26 08:13:41 51°15.058 2°54.298 328.4 12.8 324 8.2
2010-11-26 08:13:46 51°15.072 2°54.281 328.3 12.9 324 8.4
2010-11-26 08:13:51 51°15.086 2°54.264 328.1 13 323 -999
2010-11-26 08:13:55 51°15.098 2°54.251 328.2 13 324 8.5
2010-11-26 08:14:00 51°15.112 2°54.233 327.7 13.1 323 8.5
2010-11-26 08:14:06 51°15.13 2°54.213 327.4 13 324 8.8
2010-11-26 08:14:11 51°15.145 2°54.196 328.9 13.1 325 9.2
2010-11-26 08:14:15 51°15.156 2°54.182 329.1 13.2 323 9.4
2010-11-26 08:14:20 51°15.171 2°54.165 327.7 13.2 322 9.4
2010-11-26 08:14:26 51°15.188 2°54.142 325.7 13.3 320 9.5
2010-11-26 08:14:31 51°15.202 2°54.124 325.2 13.3 321 9.2
2010-11-26 08:14:35 51°15.213 2°54.108 323.8 13.3 318 8.9
2010-11-26 08:14:41 51°15.23 2°54.084 322.6 13.3 319 8.8
2010-11-26 08:14:46 51°15.244 2°54.065 322.5 13.3 319 8.8
2010-11-26 08:14:51 51°15.258 2°54.045 322.4 13.3 319 9.1
2010-11-26 08:14:55 51°15.269 2°54.03 322.6 13.3 319 9.3
2010-11-26 08:15:00 51°15.283 2°54.011 322.8 13.3 319 9
2010-11-26 08:15:05 51°15.297 2°53.992 323.1 13.3 320 9.2
2010-11-26 08:15:11 51°15.314 2°53.969 323.5 13.2 320 9
2010-11-26 08:15:15 51°15.325 2°53.954 323.8 13.3 320 9.1
2010-11-26 08:15:21 51°15.342 2°53.931 323.3 13.3 319 9.2
2010-11-26 08:15:26 51°15.355 2°53.911 322.8 13.4 318 8.9
2010-11-26 08:15:31 51°15.369 2°53.891 321.9 13.3 317 8.9
2010-11-26 08:15:35 51°15.379 2°53.875 320.7 13.3 317 8.8
2010-11-26 08:15:40 51°15.392 2°53.854 320.2 13.5 316 8.7
2010-11-26 08:15:46 51°15.408 2°53.829 319.4 13.3 316 8.6
2010-11-26 08:15:51 51°15.421 2°53.809 319.4 13.3 317 9.4
2010-11-26 08:15:55 51°15.432 2°53.793 320.3 13.4 318 9.1
2010-11-26 08:16:01 51°15.449 2°53.77 321.1 13.4 319 9
2010-11-26 08:16:06 51°15.463 2°53.751 321.6 13.3 319 9
2010-11-26 08:16:11 51°15.478 2°53.732 322.8 13.4 321 9.7
2010-11-26 08:16:15 51°15.489 2°53.717 324.1 13.3 321 9.5
2010-11-26 08:16:20 51°15.504 2°53.699 325.1 13.3 323 9.6
2010-11-26 08:16:26 51°15.522 2°53.678 325.6 13.3 322 10
2010-11-26 08:16:31 51°15.537 2°53.661 327.3 13.3 325 10.3
2010-11-26 08:16:35 51°15.549 2°53.648 328.3 13.3 325 10.2
2010-11-26 08:16:41 51°15.568 2°53.629 329.7 13.3 328 9.8
2010-11-26 08:16:45 51°15.58 2°53.617 331.2 13.3 329 9.8
2010-11-26 08:16:51 51°15.6 2°53.6 333.5 13.2 332 10.2
2010-11-26 08:16:55 51°15.613 2°53.589 335.1 13.2 332 10.1
2010-11-26 08:17:00 51°15.63 2°53.577 336.9 13.2 335 9.6
2010-11-26 08:17:05 51°15.646 2°53.564 338.3 13.1 334 10.1
2010-11-26 08:17:11 51°15.666 2°53.552 339.7 12.9 338 10.3
2010-11-26 08:17:15 51°15.679 2°53.542 341 13 337 10.9
2010-11-26 08:17:21 51°15.699 2°53.53 341.8 13 339 10.5
2010-11-26 08:17:26 51°15.716 2°53.519 342.5 13 337 10.6
2010-11-26 08:17:31 51°15.733 2°53.509 342.2 12.9 339 11
2010-11-26 08:17:35 51°15.746 2°53.5 343.4 13 338 10.7
2010-11-26 08:17:41 51°15.767 2°53.487 343.1 13.1 339 10.9
2010-11-26 08:17:45 51°15.78 2°53.478 343.4 13 338 10.7
2010-11-26 08:17:51 51°15.8 2°53.465 343.2 13 338 10.6
2010-11-26 08:17:55 51°15.814 2°53.457 343.4 13.1 339 11.5
2010-11-26 08:18:01 51°15.834 2°53.444 343.4 13 338 10.6
2010-11-26 08:18:06 51°15.851 2°53.433 342.9 13 338 10.6
2010-11-26 08:18:11 51°15.867 2°53.422 342.7 13 337 11.2
2010-11-26 08:18:15 51°15.88 2°53.413 342.1 13.1 337 11.2
2010-11-26 08:18:21 51°15.9 2°53.399 341.9 13 337 11.2
2010-11-26 08:18:26 51°15.917 2°53.388 341.9 13 337 10.9
2010-11-26 08:18:31 51°15.933 2°53.376 342 13 336 10.8
2010-11-26 08:18:35 51°15.947 2°53.367 342 13 337 10.4
2010-11-26 08:18:41 51°15.966 2°53.353 341.7 13.1 336 10.7
2010-11-26 08:18:46 51°15.983 2°53.342 341.7 13 337 10.6
2010-11-26 08:18:51 51°15.999 2°53.33 341.3 13 335 11.1
2010-11-26 08:18:55 51°16.012 2°53.32 340.9 13 335 11
2010-11-26 08:19:00 51°16.029 2°53.308 341.1 13 335 10.3
2010-11-26 08:19:05 51°16.045 2°53.296 341 12.9 335 10.5
2010-11-26 08:19:11 51°16.065 2°53.282 341.2 13.1 335 10.5
2010-11-26 08:19:15 51°16.078 2°53.272 341.1 13 336 10.7
2010-11-26 08:19:20 51°16.095 2°53.261 341.5 13 336 10.7
2010-11-26 08:19:25 51°16.111 2°53.249 341.7 13 336 10.7
2010-11-26 08:19:31 51°16.131 2°53.235 341.4 13 336 11.2
2010-11-26 08:19:35 51°16.144 2°53.226 341.3 13 336 10.9
2010-11-26 08:19:41 51°16.164 2°53.211 341.2 13 336 11
2010-11-26 08:19:45 51°16.177 2°53.202 341.2 13.1 336 11.3
2010-11-26 08:19:51 51°16.197 2°53.188 341.2 13 336 11.1
2010-11-26 08:19:55 51°16.211 2°53.179 341.3 13.1 337 10.6
2010-11-26 08:20:00 51°16.227 2°53.168 341.3 12.9 336 11.1
2010-11-26 08:20:05 51°16.244 2°53.156 341.1 13 336 10.7
2010-11-26 08:20:11 51°16.263 2°53.142 340.9 12.9 336 10.8
2010-11-26 08:20:15 51°16.277 2°53.133 340.8 13 336 11.2
2010-11-26 08:20:21 51°16.296 2°53.119 340.6 13 336 10.9
2010-11-26 08:20:26 51°16.313 2°53.107 340.6 13 336 11.2
2010-11-26 08:20:31 51°16.329 2°53.096 341.1 13 337 10.8
2010-11-26 08:20:35 51°16.343 2°53.087 341 13 336 11.2
2010-11-26 08:20:41 51°16.363 2°53.073 340.7 13.1 336 11
2010-11-26 08:20:46 51°16.379 2°53.06 340.5 13.2 335 10.8
2010-11-26 08:20:51 51°16.396 2°53.049 340.3 13 336 10.7
2010-11-26 08:20:55 51°16.409 2°53.039 340.1 12.9 336 11.5
2010-11-26 08:21:00 51°16.425 2°53.027 340.3 13 336 11.2
2010-11-26 08:21:05 51°16.442 2°53.016 340.4 13 336 10.9
2010-11-26 08:21:11 51°16.462 2°53.002 340.5 13.1 337 11.1
2010-11-26 08:21:15 51°16.475 2°52.992 340.4 13.1 336 10.9
2010-11-26 08:21:21 51°16.495 2°52.979 340.6 13.1 337 11.2
2010-11-26 08:21:26 51°16.512 2°52.967 340.4 13.1 335 10.7
2010-11-26 08:21:31 51°16.528 2°52.956 340.4 13.1 337 10.8
2010-11-26 08:21:35 51°16.542 2°52.946 340.4 13.1 336 10.9
2010-11-26 08:21:40 51°16.558 2°52.935 340.3 13.1 337 11.1
2010-11-26 08:21:45 51°16.575 2°52.923 340.5 13.1 336 11
2010-11-26 08:21:51 51°16.595 2°52.909 340.5 13.2 337 11.2
2010-11-26 08:21:55 51°16.608 2°52.9 340.5 13 337 10.7
2010-11-26 08:22:00 51°16.625 2°52.889 340.5 13.1 337 10.8
2010-11-26 08:22:06 51°16.645 2°52.875 340.6 13 337 10.2
2010-11-26 08:22:11 51°16.662 2°52.864 340.8 13 337 10.5
2010-11-26 08:22:15 51°16.675 2°52.854 340.9 13 336 10.1
2010-11-26 08:22:21 51°16.695 2°52.84 340.6 13.1 336 10.1
2010-11-26 08:22:25 51°16.708 2°52.831 340.2 13.1 337 10
2010-11-26 08:22:31 51°16.728 2°52.817 340.5 13 336 9.8
2010-11-26 08:22:35 51°16.741 2°52.808 340.6 12.9 337 9.8
2010-11-26 08:22:40 51°16.757 2°52.797 340.5 13 336 8.8
2010-11-26 08:22:46 51°16.776 2°52.784 340.5 12.7 337 8.6
2010-11-26 08:22:51 51°16.793 2°52.773 341 12.7 337 8.9
2010-11-26 08:22:55 51°16.806 2°52.763 340.7 12.7 336 8.8
2010-11-26 08:23:01 51°16.825 2°52.75 340.5 12.7 337 9.2
2010-11-26 08:23:06 51°16.841 2°52.739 340.5 12.7 336 8.7
2010-11-26 08:23:11 51°16.857 2°52.727 340.2 12.7 336 8.8
2010-11-26 08:23:15 51°16.87 2°52.718 340 12.7 336 8.9
2010-11-26 08:23:20 51°16.887 2°52.707 340 12.7 336 8.4
2010-11-26 08:23:26 51°16.906 2°52.693 340.1 12.7 336 8.9
2010-11-26 08:23:31 51°16.922 2°52.682 340 12.8 336 8.7
2010-11-26 08:23:35 51°16.935 2°52.673 340.1 12.7 337 9.3
2010-11-26 08:23:40 51°16.952 2°52.662 341.1 12.9 338 9.2
2010-11-26 08:23:45 51°16.969 2°52.653 343.1 12.8 342 8.6
2010-11-26 08:23:51 51°16.989 2°52.643 344.1 12.7 341 9.5
2010-11-26 08:23:55 51°17.003 2°52.637 347 12.9 346 9.2
2010-11-26 08:24:00 51°17.02 2°52.629 348.5 12.8 345 8.8
2010-11-26 08:24:05 51°17.037 2°52.624 350.7 12.8 349 9
2010-11-26 08:24:11 51°17.058 2°52.617 351.7 12.8 348 8.7
2010-11-26 08:24:15 51°17.072 2°52.614 353.2 12.6 352 8.6
2010-11-26 08:24:21 51°17.093 2°52.608 354.4 12.7 350 8.7
2010-11-26 08:24:25 51°17.106 2°52.608 356.5 12.6 356 8.8
2010-11-26 08:24:31 51°17.127 2°52.604 357.4 12.5 354 8.8
2010-11-26 08:24:35 51°17.141 2°52.603 359.3 12.5 357 8.9
2010-11-26 08:24:41 51°17.162 2°52.601 359.8 12.6 357 8.6
2010-11-26 08:24:45 51°17.176 2°52.601 0.7 12.7 357 8.6
2010-11-26 08:24:51 51°17.197 2°52.6 1.1 12.7 359 9
2010-11-26 08:24:55 51°17.211 2°52.599 1.5 12.7 358 8.9
2010-11-26 08:25:01 51°17.232 2°52.599 1.7 12.8 359 8.8
2010-11-26 08:25:06 51°17.25 2°52.598 1.8 12.8 359 9
2010-11-26 08:25:11 51°17.268 2°52.597 1.9 12.6 359 9
2010-11-26 08:25:15 51°17.282 2°52.596 1.8 12.7 358 9
2010-11-26 08:25:21 51°17.302 2°52.596 1.5 12.8 358 8.6
2010-11-26 08:25:26 51°17.32 2°52.595 1.4 12.6 358 9.3
2010-11-26 08:25:31 51°17.337 2°52.594 0.8 12.7 358 9.7
2010-11-26 08:25:35 51°17.352 2°52.592 0.8 12.9 357 9
2010-11-26 08:25:40 51°17.369 2°52.59 359.7 12.5 357 9
2010-11-26 08:25:46 51°17.39 2°52.588 0.1 12.4 357 9.7
2010-11-26 08:25:51 51°17.407 2°52.584 358.6 12.6 352 9.8
2010-11-26 08:25:55 51°17.421 2°52.579 354.6 12.7 349 9.1
2010-11-26 08:26:00 51°17.438 2°52.575 353.6 12.7 350 9.4
2010-11-26 08:26:05 51°17.455 2°52.568 351.8 12.8 346 9.4
2010-11-26 08:26:11 51°17.476 2°52.561 351.2 12.6 348 9.5
2010-11-26 08:26:15 51°17.489 2°52.553 349 12.8 341 9.7
2010-11-26 08:26:20 51°17.506 2°52.545 346.7 12.7 344 9.3
2010-11-26 08:26:25 51°17.523 2°52.536 346.3 12.9 341 9.3
2010-11-26 08:26:31 51°17.543 2°52.523 343.9 12.9 339 9.2
2010-11-26 08:26:35 51°17.557 2°52.515 343.1 12.9 339 9.4
2010-11-26 08:26:40 51°17.573 2°52.504 341.9 13 336 9.6
2010-11-26 08:26:46 51°17.593 2°52.489 340 12.9 336 9.3
2010-11-26 08:26:51 51°17.609 2°52.476 338.4 12.9 333 10
2010-11-26 08:26:55 51°17.622 2°52.466 337.4 13.1 333 9.6
2010-11-26 08:27:01 51°17.641 2°52.449 336.1 13.1 332 9.1
2010-11-26 08:27:06 51°17.657 2°52.435 335 13.1 331 9.5
2010-11-26 08:27:11 51°17.673 2°52.421 334.4 13 330 9.5
2010-11-26 08:27:15 51°17.685 2°52.409 333.8 13.1 330 9.5
2010-11-26 08:27:20 51°17.701 2°52.394 333 13 329 9.1
2010-11-26 08:27:25 51°17.716 2°52.379 332.2 13.1 329 9.4
2010-11-26 08:27:31 51°17.735 2°52.361 332 13.1 329 9.5
2010-11-26 08:27:35 51°17.747 2°52.349 331.8 13.2 328 9.6
2010-11-26 08:27:40 51°17.763 2°52.334 332.3 13.2 329 9.8
2010-11-26 08:27:46 51°17.782 2°52.317 332.9 13.1 330 9.3
2010-11-26 08:27:51 51°17.797 2°52.302 333.5 13.1 330 9.3
2010-11-26 08:27:55 51°17.81 2°52.291 333.7 13.1 330 9.3
2010-11-26 08:28:01 51°17.829 2°52.274 334 13.1 331 9.7
2010-11-26 08:28:06 51°17.845 2°52.259 334 13.1 330 9.9
2010-11-26 08:28:11 51°17.861 2°52.244 334 13.2 330 10.1
2010-11-26 08:28:15 51°17.874 2°52.232 334 13.3 330 10.2
2010-11-26 08:28:20 51°17.89 2°52.218 334.1 13.3 331 9.8
2010-11-26 08:28:25 51°17.906 2°52.204 334.2 13.1 330 9.9
2010-11-26 08:28:31 51°17.925 2°52.187 334.6 13.2 331 10.6
2010-11-26 08:28:35 51°17.937 2°52.175 334.5 13.2 330 10.1
2010-11-26 08:28:40 51°17.953 2°52.161 334.7 13.1 331 10.5
2010-11-26 08:28:46 51°17.972 2°52.143 334.6 13.1 330 10.7
2010-11-26 08:28:51 51°17.988 2°52.129 334.6 13.1 331 10.5
2010-11-26 08:28:55 51°18.001 2°52.117 334.6 13.1 330 10.3
2010-11-26 08:29:01 51°18.019 2°52.101 334.7 13 331 10.4
2010-11-26 08:29:05 51°18.032 2°52.089 334.8 13 330 10.3
2010-11-26 08:29:11 51°18.051 2°52.072 334.7 13 330 10.6
2010-11-26 08:29:15 51°18.063 2°52.06 334.2 12.9 329 10.6
2010-11-26 08:29:21 51°18.082 2°52.043 334.5 13 330 10.5
2010-11-26 08:29:25 51°18.094 2°52.031 334.6 13 330 10.8
2010-11-26 08:29:31 51°18.113 2°52.014 334.7 13 330 9.9
2010-11-26 08:29:35 51°18.126 2°52.002 334.6 13 330 10
2010-11-26 08:29:41 51°18.144 2°51.985 334.7 13 330 9.8
2010-11-26 08:29:46 51°18.16 2°51.97 334.9 13 330 10.4
2010-11-26 08:29:51 51°18.176 2°51.956 335.2 13 331 10.1
2010-11-26 08:29:55 51°18.188 2°51.945 335.3 13 331 10.1
2010-11-26 08:30:00 51°18.204 2°51.931 335.2 13 330 10.3
2010-11-26 08:30:06 51°18.223 2°51.914 335.1 13 330 10.5
2010-11-26 08:30:11 51°18.238 2°51.899 335.4 13 330 10.3
2010-11-26 08:30:15 51°18.251 2°51.888 335.3 13.1 331 10.7
2010-11-26 08:30:20 51°18.267 2°51.874 335.3 13.1 330 10.5
2010-11-26 08:30:25 51°18.283 2°51.86 335.4 13.2 330 10.8
2010-11-26 08:30:31 51°18.302 2°51.843 335.8 13.1 331 10.6
2010-11-26 08:30:35 51°18.315 2°51.831 335.6 13.2 331 10.6
2010-11-26 08:30:40 51°18.33 2°51.818 335.8 13.1 331 10.9
2010-11-26 08:30:45 51°18.346 2°51.803 336 13.2 330 10.9
2010-11-26 08:30:51 51°18.365 2°51.786 335.6 13.2 331 10.9
2010-11-26 08:30:55 51°18.378 2°51.775 335.9 13.1 331 10.7
2010-11-26 08:31:01 51°18.397 2°51.758 335.8 13.1 331 11.3
2010-11-26 08:31:06 51°18.413 2°51.744 336 13.2 330 11.1
2010-11-26 08:31:11 51°18.429 2°51.729 335.6 13.2 331 11.6
2010-11-26 08:31:15 51°18.442 2°51.718 335.7 13.2 331 11.1
2010-11-26 08:31:21 51°18.461 2°51.701 335.9 13.1 331 11.8
2010-11-26 08:31:25 51°18.474 2°51.69 336.1 13.1 331 11.7
2010-11-26 08:31:31 51°18.493 2°51.673 336.4 13.2 331 12
2010-11-26 08:31:35 51°18.506 2°51.662 336.4 13.2 331 12.3
2010-11-26 08:31:41 51°18.525 2°51.645 336.6 13.2 331 12.2
2010-11-26 08:31:46 51°18.541 2°51.631 336.4 13.3 331 12.1
2010-11-26 08:31:51 51°18.557 2°51.616 336.4 13.2 331 11.9
2010-11-26 08:31:55 51°18.57 2°51.605 335.8 13.1 331 12.3
2010-11-26 08:32:00 51°18.586 2°51.591 336 13.2 330 13.1
2010-11-26 08:32:06 51°18.605 2°51.573 336.1 13.2 331 12.9
2010-11-26 08:32:11 51°18.621 2°51.559 336.1 13.1 330 12.4
2010-11-26 08:32:15 51°18.634 2°51.548 336.1 13.1 331 12.7
2010-11-26 08:32:21 51°18.653 2°51.531 336.1 13.3 330 12.8
2010-11-26 08:32:25 51°18.666 2°51.519 335.7 13.1 331 12.7
2010-11-26 08:32:31 51°18.685 2°51.502 335.9 13.2 331 13.1
2010-11-26 08:32:35 51°18.698 2°51.491 336.1 13.1 331 12.9
2010-11-26 08:32:40 51°18.714 2°51.477 336.2 13.2 331 13.3
2010-11-26 08:32:45 51°18.729 2°51.463 336.3 13.2 331 13.2
2010-11-26 08:32:51 51°18.749 2°51.446 336.4 13.3 331 12.7
2010-11-26 08:32:55 51°18.762 2°51.434 336.4 13.1 331 13.2
2010-11-26 08:33:00 51°18.777 2°51.42 336.2 13.2 330 13.8
2010-11-26 08:33:06 51°18.797 2°51.403 336.1 13.2 331 13.5
2010-11-26 08:33:11 51°18.813 2°51.388 335.8 13.2 330 13.6
2010-11-26 08:33:15 51°18.825 2°51.377 335.6 13.3 330 13.9
2010-11-26 08:33:21 51°18.844 2°51.36 335.8 13.3 331 13.7
2010-11-26 08:33:26 51°18.86 2°51.345 335.7 13.4 331 14.2
2010-11-26 08:33:31 51°18.876 2°51.331 336.1 13.4 331 14
2010-11-26 08:33:35 51°18.889 2°51.319 336 13.3 330 13.5
2010-11-26 08:33:41 51°18.909 2°51.302 335.6 13.3 331 13.8
2010-11-26 08:33:45 51°18.922 2°51.291 336.1 13.3 331 13.6
2010-11-26 08:33:51 51°18.941 2°51.274 336.1 13.1 331 13.9
2010-11-26 08:33:55 51°18.954 2°51.262 336.1 13.2 331 14.4
2010-11-26 08:34:01 51°18.973 2°51.245 335.8 13.3 330 14.1
2010-11-26 08:34:06 51°18.989 2°51.231 336.1 13.3 332 14.1
2010-11-26 08:34:11 51°19.005 2°51.216 336.3 13.3 330 14.2
2010-11-26 08:34:15 51°19.018 2°51.205 336.1 13.3 331 14.4
2010-11-26 08:34:20 51°19.035 2°51.19 336 13.4 331 14.4
2010-11-26 08:34:26 51°19.054 2°51.173 336.2 13.3 331 14
2010-11-26 08:34:31 51°19.07 2°51.158 336.1 13.3 331 14.4
2010-11-26 08:34:35 51°19.083 2°51.147 336.2 13.4 331 14.5
2010-11-26 08:34:40 51°19.1 2°51.132 336.4 13.4 331 14.5
2010-11-26 08:34:46 51°19.119 2°51.116 336.5 13.4 331 14.1
2010-11-26 08:34:51 51°19.136 2°51.101 336.5 13.3 331 14.7
2010-11-26 08:34:55 51°19.149 2°51.09 336.7 13.5 332 14.2
2010-11-26 08:35:00 51°19.165 2°51.075 336.8 13.4 331 13.9
2010-11-26 08:35:05 51°19.181 2°51.062 336.7 13.4 332 14.3
2010-11-26 08:35:11 51°19.201 2°51.045 336.6 13.3 332 14.1
2010-11-26 08:35:15 51°19.214 2°51.034 336.9 13.4 332 14.5
2010-11-26 08:35:20 51°19.23 2°51.019 336.5 13.5 331 13.7
2010-11-26 08:35:25 51°19.246 2°51.005 336.1 13.3 331 13.7
2010-11-26 08:35:31 51°19.266 2°50.988 336 13.3 331 14.1
2010-11-26 08:35:35 51°19.278 2°50.976 336.1 13.4 331 14.2
2010-11-26 08:35:41 51°19.298 2°50.959 335.9 13.3 331 13.7
2010-11-26 08:35:46 51°19.314 2°50.945 336 13.2 331 13.9
2010-11-26 08:35:51 51°19.33 2°50.93 336.1 13.3 331 13.9
2010-11-26 08:35:55 51°19.343 2°50.919 336.2 13.2 331 13.9
2010-11-26 08:36:01 51°19.363 2°50.902 336.6 13.3 332 13.6
2010-11-26 08:36:05 51°19.376 2°50.891 336.6 13.3 332 13.1
2010-11-26 08:36:11 51°19.395 2°50.874 336.4 13.4 331 13.4
2010-11-26 08:36:15 51°19.408 2°50.863 336.1 13.2 331 13.2
2010-11-26 08:36:20 51°19.424 2°50.849 336.1 13.3 331 13.6
2010-11-26 08:36:26 51°19.444 2°50.832 336.5 13.2 332 13
2010-11-26 08:36:31 51°19.46 2°50.818 336.5 13.2 332 12.9
2010-11-26 08:36:35 51°19.473 2°50.806 336.3 13.4 332 12.7
2010-11-26 08:36:41 51°19.493 2°50.79 336.5 13.4 332 12
2010-11-26 08:36:46 51°19.509 2°50.776 336.4 13.3 331 12.1
2010-11-26 08:36:51 51°19.525 2°50.762 336.6 13.3 332 12
2010-11-26 08:36:55 51°19.538 2°50.751 336.2 13.3 331 11.9
2010-11-26 08:37:00 51°19.554 2°50.737 336.2 13.2 332 11.9
2010-11-26 08:37:05 51°19.57 2°50.723 336.4 13.3 331 11.5
2010-11-26 08:37:11 51°19.59 2°50.706 336.1 13.4 331 11.5
2010-11-26 08:37:15 51°19.603 2°50.694 335.8 13.3 330 11.3
2010-11-26 08:37:21 51°19.622 2°50.676 335.8 13.3 330 11.7
2010-11-26 08:37:26 51°19.638 2°50.661 335.4 13.4 330 11.3
2010-11-26 08:37:31 51°19.654 2°50.647 335.5 13.3 330 10.6
2010-11-26 08:37:35 51°19.667 2°50.635 335.8 13.3 331 10.4
2010-11-26 08:37:40 51°19.683 2°50.62 335.6 13.3 330 10.3
2010-11-26 08:37:45 51°19.699 2°50.606 336.1 13.2 331 10.3
2010-11-26 08:37:51 51°19.718 2°50.588 336.3 13.2 330 10.8
2010-11-26 08:37:55 51°19.731 2°50.577 336.5 13.3 331 11.6
2010-11-26 08:38:01 51°19.75 2°50.559 336.3 13.3 330 12
2010-11-26 08:38:06 51°19.766 2°50.545 336.5 13.4 331 12
2010-11-26 08:38:11 51°19.782 2°50.53 336.7 13.3 330 11.3
2010-11-26 08:38:15 51°19.795 2°50.518 336.4 13.3 330 12
2010-11-26 08:38:21 51°19.814 2°50.5 336.5 13.4 330 12
2010-11-26 08:38:25 51°19.827 2°50.489 336.6 13.4 331 12.1
2010-11-26 08:38:31 51°19.847 2°50.472 337 13.4 330 12.4
2010-11-26 08:38:35 51°19.86 2°50.46 336.8 13.4 330 12.7
2010-11-26 08:38:41 51°19.879 2°50.442 336.9 13.6 331 12.8
2010-11-26 08:38:46 51°19.895 2°50.427 336.8 13.5 330 12.8
2010-11-26 08:38:51 51°19.912 2°50.413 336.7 13.3 331 13.5
2010-11-26 08:38:55 51°19.925 2°50.401 336.8 13.5 330 13.7
2010-11-26 08:39:00 51°19.941 2°50.386 336.5 13.6 331 14
2010-11-26 08:39:06 51°19.96 2°50.368 336.6 13.3 330 14.2
2010-11-26 08:39:11 51°19.977 2°50.354 336.6 13.3 331 14.2
2010-11-26 08:39:15 51°19.989 2°50.342 336.9 13.3 330 14.2
2010-11-26 08:39:20 51°20.006 2°50.327 336.9 13.4 330 14.6
2010-11-26 08:39:25 51°20.022 2°50.312 336.5 13.5 330 14.1
2010-11-26 08:39:31 51°20.041 2°50.295 336.5 13.3 330 13.7
2010-11-26 08:39:35 51°20.054 2°50.283 336.3 13.1 330 14.3
2010-11-26 08:39:40 51°20.069 2°50.268 336.4 13.3 329 14.7
2010-11-26 08:39:45 51°20.085 2°50.253 336.2 13.4 330 14.9
2010-11-26 08:39:51 51°20.104 2°50.235 335.8 13.4 329 14.4
2010-11-26 08:39:55 51°20.117 2°50.223 336.1 13.3 329 14.8
2010-11-26 08:40:00 51°20.133 2°50.207 335.5 13.4 328 15.7
2010-11-26 08:40:06 51°20.152 2°50.189 335.5 13.3 329 16.2
2010-11-26 08:40:11 51°20.168 2°50.173 335.8 13.5 329 16.4
2010-11-26 08:40:15 51°20.181 2°50.161 336 13.3 330 16.3
2010-11-26 08:40:21 51°20.2 2°50.144 336.8 13.4 330 16.5
2010-11-26 08:40:25 51°20.213 2°50.132 336.4 13.3 329 16
2010-11-26 08:40:31 51°20.232 2°50.114 336.2 13.3 330 16.6
2010-11-26 08:40:35 51°20.245 2°50.102 336.3 13.3 329 17.4
2010-11-26 08:40:41 51°20.264 2°50.084 336.1 13.2 330 17.7
2010-11-26 08:40:45 51°20.277 2°50.073 336.1 13.2 330 17.9
2010-11-26 08:40:51 51°20.296 2°50.055 336.2 13.2 330 17.8
2010-11-26 08:40:55 51°20.309 2°50.043 336.2 13.3 330 18.4
2010-11-26 08:41:00 51°20.325 2°50.029 336.3 13.4 330 18.5
2010-11-26 08:41:06 51°20.344 2°50.01 336.2 13.5 330 18.3
2010-11-26 08:41:11 51°20.36 2°49.996 336.1 13.2 330 18.6
2010-11-26 08:41:15 51°20.372 2°49.984 336.1 13.1 329 19.4
2010-11-26 08:41:20 51°20.388 2°49.97 335.9 13.2 330 19.6
2010-11-26 08:41:25 51°20.404 2°49.955 336.1 13.2 330 19.3
2010-11-26 08:41:31 51°20.423 2°49.937 336.1 13.2 330 19.9
2010-11-26 08:41:35 51°20.436 2°49.925 335.9 13.3 330 20.1
2010-11-26 08:41:40 51°20.452 2°49.911 336 13.4 330 20.4
2010-11-26 08:41:45 51°20.468 2°49.896 335.7 13.4 329 20.8
2010-11-26 08:41:51 51°20.487 2°49.878 336 13.3 330 20.7
2010-11-26 08:41:55 51°20.5 2°49.866 335.5 13.3 329 21.5
2010-11-26 08:42:00 51°20.516 2°49.851 335.8 13.3 331 21.3
2010-11-26 08:42:05 51°20.532 2°49.837 336.5 13.2 331 20.8
2010-11-26 08:42:11 51°20.552 2°49.82 336.9 13.2 332 21.5
2010-11-26 08:42:15 51°20.565 2°49.809 337 13.3 331 22
2010-11-26 08:42:21 51°20.584 2°49.792 337 13.3 331 21.6
2010-11-26 08:42:25 51°20.597 2°49.781 337.3 13.3 332 21.6
2010-11-26 08:42:31 51°20.616 2°49.764 337.1 13.2 332 21.5
2010-11-26 08:42:35 51°20.629 2°49.753 337.1 13.3 332 22.5
2010-11-26 08:42:40 51°20.646 2°49.739 337.6 13 333 21.9
2010-11-26 08:42:46 51°20.665 2°49.722 337.9 13.1 331 22.3
2010-11-26 08:42:51 51°20.681 2°49.709 337.3 13.3 332 22.1
2010-11-26 08:42:55 51°20.694 2°49.698 337.6 13.3 332 22
2010-11-26 08:43:01 51°20.713 2°49.682 337.6 13.1 331 22.6
2010-11-26 08:43:06 51°20.729 2°49.668 337.8 13.2 333 22.2
2010-11-26 08:43:11 51°20.745 2°49.654 336.9 13.3 330 22.5
2010-11-26 08:43:15 51°20.759 2°49.643 337.2 13.2 333 22.4
2010-11-26 08:43:20 51°20.775 2°49.628 336.8 13.4 330 22.2
2010-11-26 08:43:26 51°20.794 2°49.612 336.9 13.4 332 22.3
2010-11-26 08:43:31 51°20.811 2°49.598 337.2 13.4 331 22.1
2010-11-26 08:43:35 51°20.824 2°49.587 337.1 13.3 332 21.7
2010-11-26 08:43:40 51°20.84 2°49.573 337.2 13.4 332 22
2010-11-26 08:43:45 51°20.856 2°49.559 337 13.3 331 22
2010-11-26 08:43:51 51°20.876 2°49.542 336.2 13.3 331 22.5
2010-11-26 08:43:55 51°20.889 2°49.53 336.1 13.5 330 22.4
2010-11-26 08:44:00 51°20.905 2°49.515 335.6 13.3 330 21.9
2010-11-26 08:44:05 51°20.921 2°49.5 335.1 13.3 330 22.3
2010-11-26 08:44:11 51°20.94 2°49.483 334.9 13.3 330 21.8
2010-11-26 08:44:15 51°20.952 2°49.471 335 13 329 22.2
2010-11-26 08:44:20 51°20.968 2°49.456 334.7 13 330 22.6
2010-11-26 08:44:25 51°20.984 2°49.442 334.8 13.2 330 22.2
2010-11-26 08:44:31 51°21.002 2°49.424 334.9 13.2 330 21.8
2010-11-26 08:44:35 51°21.015 2°49.412 334.7 13.1 330 21.8
2010-11-26 08:44:40 51°21.031 2°49.397 334.8 13.1 329 22.3
2010-11-26 08:44:45 51°21.046 2°49.382 334.7 13.2 329 22.5
2010-11-26 08:44:51 51°21.066 2°49.365 334.7 13.3 330 21.8
2010-11-26 08:44:55 51°21.078 2°49.353 335 13.1 330 21.4
2010-11-26 08:45:01 51°21.097 2°49.335 335.1 13.3 329 21.6
2010-11-26 08:45:05 51°21.11 2°49.324 334.8 13.2 330 21.5
2010-11-26 08:45:11 51°21.129 2°49.306 335.3 13.3 330 21.2
2010-11-26 08:45:15 51°21.141 2°49.295 334.9 13.2 330 21.2
2010-11-26 08:45:19 51°21.154 2°49.283 335 13.3 330 21.1
2010-11-26 08:45:26 51°21.176 2°49.262 335 13.2 330 21.7
2010-11-26 08:45:31 51°21.193 2°49.248 335 13.3 331 21.3
2010-11-26 08:45:35 51°21.205 2°49.236 335.1 13.3 330 21.5
2010-11-26 08:45:40 51°21.222 2°49.221 335.4 13.4 330 21.2
2010-11-26 08:45:46 51°21.241 2°49.204 335.4 13.4 330 21.1
2010-11-26 08:45:51 51°21.257 2°49.189 335.1 13.4 330 20.7
2010-11-26 08:45:55 51°21.27 2°49.177 335.2 13.5 331 20.5
2010-11-26 08:46:00 51°21.286 2°49.163 335.1 13.4 331 20.9
2010-11-26 08:46:05 51°21.303 2°49.148 334.9 13.4 331 20.5
2010-11-26 08:46:11 51°21.322 2°49.13 335.3 13.4 331 20.7
2010-11-26 08:46:15 51°21.335 2°49.119 335.4 13.4 331 20.5
2010-11-26 08:46:20 51°21.351 2°49.105 335.5 13.4 331 20.4
2010-11-26 08:46:25 51°21.367 2°49.09 335.5 13.5 331 20.8
2010-11-26 08:46:31 51°21.387 2°49.073 335.4 13.5 331 20.4
2010-11-26 08:46:35 51°21.4 2°49.061 335.4 13.4 331 20.8
2010-11-26 08:46:40 51°21.416 2°49.047 335.4 13.5 331 20.6
2010-11-26 08:46:45 51°21.433 2°49.032 335.4 13.5 331 20.5
2010-11-26 08:46:51 51°21.452 2°49.014 335.3 13.5 331 20.4
2010-11-26 08:46:55 51°21.465 2°49.002 335.2 13.6 331 20.2
2010-11-26 08:47:01 51°21.485 2°48.985 335.4 13.5 331 20.3
2010-11-26 08:47:05 51°21.498 2°48.974 335.4 13.4 331 21.1
2010-11-26 08:47:11 51°21.518 2°48.957 335.4 13.4 332 21.3
2010-11-26 08:47:15 51°21.531 2°48.945 335.4 13.4 332 21.4
2010-11-26 08:47:20 51°21.547 2°48.93 335.3 13.4 330 21.5
2010-11-26 08:47:26 51°21.567 2°48.913 335 13.5 331 21.1
2010-11-26 08:47:31 51°21.583 2°48.899 335 13.5 331 21.8
2010-11-26 08:47:35 51°21.596 2°48.887 335.1 13.6 331 22.3
2010-11-26 08:47:40 51°21.613 2°48.873 335.1 13.6 331 22.1
2010-11-26 08:47:46 51°21.632 2°48.856 335.2 13.5 331 22.1
2010-11-26 08:47:51 51°21.649 2°48.841 335.3 13.5 331 23.3
2010-11-26 08:47:55 51°21.662 2°48.83 335.7 13.6 332 22.4
2010-11-26 08:48:00 51°21.678 2°48.815 335.4 13.7 331 22.5
2010-11-26 08:48:06 51°21.698 2°48.799 335.3 13.3 332 22.4
2010-11-26 08:48:11 51°21.714 2°48.785 335.3 13.3 331 22.8
2010-11-26 08:48:15 51°21.727 2°48.774 335.8 13.3 332 21.9
2010-11-26 08:48:20 51°21.743 2°48.759 335.3 13.4 331 22.4
2010-11-26 08:48:25 51°21.76 2°48.745 335 13.5 332 22.7
2010-11-26 08:48:31 51°21.78 2°48.728 335.4 13.6 331 22.5
2010-11-26 08:48:35 51°21.793 2°48.716 335.2 13.6 332 22.5
2010-11-26 08:48:41 51°21.813 2°48.699 335 13.6 331 22.7
2010-11-26 08:48:45 51°21.826 2°48.687 334.8 13.8 331 23.2
2010-11-26 08:48:51 51°21.846 2°48.669 335 13.6 331 22.3
2010-11-26 08:48:55 51°21.859 2°48.658 335.1 13.4 332 22.3
2010-11-26 08:49:00 51°21.875 2°48.643 334.7 13.4 331 22.8
2010-11-26 08:49:05 51°21.891 2°48.63 335.3 13.5 332 22.1
2010-11-26 08:49:11 51°21.911 2°48.612 335.2 13.6 331 22.5
2010-11-26 08:49:15 51°21.925 2°48.601 335.2 13.6 332 22.2
2010-11-26 08:49:21 51°21.944 2°48.584 334.7 13.6 332 22.7
2010-11-26 08:49:25 51°21.958 2°48.572 335 13.5 332 22.4
2010-11-26 08:49:31 51°21.977 2°48.555 335.5 13.4 332 23.1
2010-11-26 08:49:35 51°21.99 2°48.544 335 13.4 331 22.5
2010-11-26 08:49:41 51°22.01 2°48.526 334.5 13.4 331 23
2010-11-26 08:49:46 51°22.026 2°48.512 334.7 13.5 331 23.3
2010-11-26 08:49:51 51°22.043 2°48.498 335 13.5 332 23
2010-11-26 08:49:55 51°22.056 2°48.486 334.7 13.6 331 23
2010-11-26 08:50:00 51°22.073 2°48.472 334.8 13.6 332 22.4
2010-11-26 08:50:06 51°22.092 2°48.454 335.1 13.6 331 23.2
2010-11-26 08:50:11 51°22.109 2°48.44 334.7 13.6 331 23.1
2010-11-26 08:50:15 51°22.122 2°48.428 334.8 13.6 331 23
2010-11-26 08:50:21 51°22.142 2°48.411 335.2 13.4 332 22.6
2010-11-26 08:50:26 51°22.158 2°48.396 336.1 13.5 331 23.2
2010-11-26 08:50:31 51°22.175 2°48.382 335.1 13.5 331 23.2
2010-11-26 08:50:35 51°22.188 2°48.371 334.8 13.4 332 22.3
2010-11-26 08:50:40 51°22.204 2°48.356 334.7 13.3 331 22.5
2010-11-26 08:50:46 51°22.223 2°48.338 335.2 13.4 330 22.5
2010-11-26 08:50:51 51°22.239 2°48.323 334.8 13.3 330 22.1
2010-11-26 08:50:55 51°22.252 2°48.312 335.1 13.2 330 22.3
2010-11-26 08:51:00 51°22.268 2°48.297 335 13.4 330 20.7
2010-11-26 08:51:06 51°22.287 2°48.279 334.7 13.3 330 20.4
2010-11-26 08:51:11 51°22.303 2°48.264 335.1 13.4 330 20.5
2010-11-26 08:51:15 51°22.316 2°48.253 335.1 13.3 330 20.4
2010-11-26 08:51:21 51°22.335 2°48.235 335 13.3 330 20.1
2010-11-26 08:51:26 51°22.351 2°48.22 335.8 13.4 330 19.1
2010-11-26 08:51:31 51°22.367 2°48.206 334.7 13.3 330 17.1
2010-11-26 08:51:35 51°22.38 2°48.194 335.3 13 330 15.7
2010-11-26 08:51:40 51°22.395 2°48.179 334.9 13.1 329 12.6
2010-11-26 08:51:46 51°22.414 2°48.162 334.9 13.1 330 14.6
2010-11-26 08:51:51 51°22.429 2°48.147 335.3 13.1 329 16
2010-11-26 08:51:55 51°22.442 2°48.135 335.1 13.1 331 16.3
2010-11-26 08:52:00 51°22.458 2°48.121 335.1 13.1 330 16.9
2010-11-26 08:52:06 51°22.477 2°48.104 335.2 13.2 331 17.2
2010-11-26 08:52:11 51°22.492 2°48.089 335.4 13.2 329 16.9
2010-11-26 08:52:15 51°22.505 2°48.078 334.9 13.2 331 17
2010-11-26 08:52:20 51°22.521 2°48.063 335.4 13.1 330 16.4
2010-11-26 08:52:26 51°22.54 2°48.046 335.3 13 331 17
2010-11-26 08:52:31 51°22.556 2°48.032 335.5 13.1 331 16.7
2010-11-26 08:52:35 51°22.568 2°48.02 335.2 13 330 15.9
2010-11-26 08:52:40 51°22.584 2°48.006 335.1 13 331 15.5
2010-11-26 08:52:46 51°22.602 2°47.988 335.7 13.1 329 15.7
2010-11-26 08:52:51 51°22.618 2°47.975 334.7 13 331 17.2
2010-11-26 08:52:55 51°22.631 2°47.963 334.7 13.1 329 17.5
2010-11-26 08:53:00 51°22.646 2°47.949 335.1 13 331 15.7
2010-11-26 08:53:06 51°22.665 2°47.932 335.1 12.9 331 14.7
2010-11-26 08:53:11 51°22.68 2°47.917 335.6 13 329 16
2010-11-26 08:53:15 51°22.693 2°47.907 335.4 12.9 333 16.7
2010-11-26 08:53:20 51°22.709 2°47.892 335.5 13 329 17.7
2010-11-26 08:53:26 51°22.728 2°47.877 335.4 13 333 18
2010-11-26 08:53:31 51°22.743 2°47.862 335.8 13 330 18.6
2010-11-26 08:53:35 51°22.756 2°47.852 335.5 13 333 19.4
2010-11-26 08:53:41 51°22.775 2°47.834 335.2 13.1 330 18.5
2010-11-26 08:53:46 51°22.791 2°47.822 335.7 13 333 18.9
2010-11-26 08:53:51 51°22.807 2°47.807 335.8 13.1 331 18.7
2010-11-26 08:53:55 51°22.82 2°47.798 336.6 13 334 18.6
2010-11-26 08:54:01 51°22.839 2°47.78 336.5 13.1 329 18.1
2010-11-26 08:54:06 51°22.855 2°47.769 336.5 13 335 17.2
2010-11-26 08:54:11 51°22.87 2°47.754 336.9 13 332 15.8
2010-11-26 08:54:15 51°22.883 2°47.744 336.2 13 332 17.7
2010-11-26 08:54:20 51°22.899 2°47.731 337.2 12.9 333 18.5
2010-11-26 08:54:26 51°22.919 2°47.715 337.2 13.2 333 18.8
2010-11-26 08:54:31 51°22.934 2°47.702 337 13 333 18.6
2010-11-26 08:54:35 51°22.947 2°47.692 337.8 12.9 335 19
2010-11-26 08:54:40 51°22.963 2°47.679 338.1 13 332 19.2
2010-11-26 08:54:46 51°22.983 2°47.664 337.2 12.9 334 19.8
2010-11-26 08:54:51 51°22.999 2°47.651 338 13 333 19.9
2010-11-26 08:54:55 51°23.012 2°47.64 337.8 13.1 333 20.6
2010-11-26 08:55:00 51°23.028 2°47.627 337.6 13.1 333 20.7
2010-11-26 08:55:05 51°23.045 2°47.614 337.6 13.2 334 20.3
2010-11-26 08:55:11 51°23.064 2°47.598 337.9 13.2 332 20.3
2010-11-26 08:55:15 51°23.077 2°47.588 337.1 13.2 333 20.2
2010-11-26 08:55:21 51°23.097 2°47.571 337 13.2 333 20.2
2010-11-26 08:55:25 51°23.11 2°47.561 337.2 13.1 332 19.4
2010-11-26 08:55:31 51°23.129 2°47.545 337.2 13.1 333 18.5
2010-11-26 08:55:35 51°23.142 2°47.534 337.1 13.1 332 18.2
2010-11-26 08:55:41 51°23.161 2°47.519 337.3 13 334 17.7
2010-11-26 08:55:46 51°23.177 2°47.505 337 13 332 18.6
2010-11-26 08:55:51 51°23.193 2°47.493 337.5 13 334 18.8
2010-11-26 08:55:55 51°23.206 2°47.482 337.7 12.9 333 20.8
2010-11-26 08:56:00 51°23.222 2°47.469 337.3 13 334 20.8
2010-11-26 08:56:06 51°23.242 2°47.453 337.6 13 333 21.2
2010-11-26 08:56:11 51°23.257 2°47.441 337.5 12.8 334 20.5
2010-11-26 08:56:15 51°23.27 2°47.43 337.5 12.8 333 21.3
2010-11-26 08:56:21 51°23.289 2°47.415 337.3 12.8 334 20.8
2010-11-26 08:56:26 51°23.305 2°47.401 337.7 13 333 21
2010-11-26 08:56:31 51°23.322 2°47.388 337.5 13 333 19.5
2010-11-26 08:56:35 51°23.335 2°47.378 337.5 13.2 333 18.1
2010-11-26 08:56:40 51°23.35 2°47.363 337 13 332 15.4
2010-11-26 08:56:46 51°23.369 2°47.348 336.9 12.9 332 17.2
2010-11-26 08:56:51 51°23.385 2°47.334 337.1 12.8 331 19.1
2010-11-26 08:56:55 51°23.398 2°47.323 337 12.9 332 19.9
2010-11-26 08:57:00 51°23.414 2°47.31 337 12.9 334 20.4
2010-11-26 08:57:06 51°23.433 2°47.294 337.2 13 331 21.5
2010-11-26 08:57:11 51°23.449 2°47.281 336.7 13.1 333 21.7
2010-11-26 08:57:15 51°23.462 2°47.271 337.6 13.2 333 21.9
2010-11-26 08:57:20 51°23.478 2°47.256 336.2 13 331 21.6
2010-11-26 08:57:26 51°23.497 2°47.242 337.2 12.7 335 22.6
2010-11-26 08:57:31 51°23.513 2°47.228 337.2 13 331 22.9
2010-11-26 08:57:35 51°23.526 2°47.218 336.9 13 333 23
2010-11-26 08:57:40 51°23.542 2°47.205 337.3 13 334 23.1
2010-11-26 08:57:46 51°23.561 2°47.188 337.3 13 332 23.7
2010-11-26 08:57:51 51°23.578 2°47.176 337.6 12.9 334 23.9
2010-11-26 08:57:55 51°23.591 2°47.165 337.6 13.1 332 24
2010-11-26 08:58:00 51°23.607 2°47.152 337.4 13.1 333 24.4
2010-11-26 08:58:06 51°23.626 2°47.136 337.5 13 333 24.1
2010-11-26 08:58:11 51°23.642 2°47.121 336.5 12.9 331 25.3
2010-11-26 08:58:15 51°23.655 2°47.11 335.6 13.1 330 24
2010-11-26 08:58:20 51°23.67 2°47.096 334.9 12.9 330 23
2010-11-26 08:58:26 51°23.688 2°47.079 334.7 13 330 22.5
2010-11-26 08:58:31 51°23.704 2°47.063 334.5 13 328 21.7
2010-11-26 08:58:35 51°23.716 2°47.051 334.1 13.1 329 22.5
2010-11-26 08:58:41 51°23.735 2°47.033 334.6 13.1 329 23.6
2010-11-26 08:58:46 51°23.751 2°47.018 334.5 13.1 329 23.8
2010-11-26 08:58:51 51°23.766 2°47.003 334 13.2 329 24.1
2010-11-26 08:58:55 51°23.779 2°46.991 334 13.2 329 24.5
2010-11-26 08:59:01 51°23.798 2°46.974 333.9 13.1 330 24.2
2010-11-26 08:59:06 51°23.813 2°46.959 334.7 13.2 330 24.9
2010-11-26 08:59:11 51°23.829 2°46.944 334.3 13.3 329 24.8
2010-11-26 08:59:15 51°23.842 2°46.932 334.3 13.1 331 25.3
2010-11-26 08:59:20 51°23.858 2°46.917 335.3 13.3 330 25.3
2010-11-26 08:59:26 51°23.877 2°46.901 335.5 13.1 331 25.4
2010-11-26 08:59:31 51°23.893 2°46.887 336.4 13 331 25.5
2010-11-26 08:59:35 51°23.906 2°46.875 336.2 13.1 331 25.7
2010-11-26 08:59:40 51°23.922 2°46.861 336.7 13.2 331 25.7
2010-11-26 08:59:46 51°23.941 2°46.844 336.1 13.2 331 26
2010-11-26 08:59:51 51°23.957 2°46.83 336.3 13.2 332 27
2010-11-26 08:59:55 51°23.97 2°46.819 336.4 13.4 331 27.4
2010-11-26 09:00:00 51°23.986 2°46.805 336.1 13.2 331 27.5
2010-11-26 09:00:06 51°24.005 2°46.788 336.6 13.2 332 28.1
2010-11-26 09:00:11 51°24.021 2°46.773 336.1 13.4 329 28.4
2010-11-26 09:00:15 51°24.034 2°46.763 336.1 13.3 333 28.3
2010-11-26 09:00:20 51°24.05 2°46.748 336.3 13.4 330 27.8
2010-11-26 09:00:26 51°24.07 2°46.732 336.5 13.3 333 27.5
2010-11-26 09:00:31 51°24.086 2°46.717 336.6 13.3 331 27.1
2010-11-26 09:00:35 51°24.099 2°46.707 336.8 13.2 332 28.2
2010-11-26 09:00:40 51°24.115 2°46.692 336.8 13.2 331 28.8
2010-11-26 09:00:46 51°24.134 2°46.676 336.4 13.2 332 28.2
2010-11-26 09:00:51 51°24.15 2°46.661 336.7 13.3 331 27.9
2010-11-26 09:00:55 51°24.163 2°46.65 336.1 13.4 330 27.6
2010-11-26 09:01:00 51°24.179 2°46.635 336.4 13.2 331 27.1
2010-11-26 09:01:06 51°24.199 2°46.618 336.1 13.2 331 26.7
2010-11-26 09:01:11 51°24.215 2°46.604 336.9 13.3 331 27
2010-11-26 09:01:15 51°24.227 2°46.592 335.8 13.1 330 27.1
2010-11-26 09:01:21 51°24.247 2°46.576 336.4 13.2 333 27.2
2010-11-26 09:01:26 51°24.263 2°46.562 336.8 13.2 331 27.7
2010-11-26 09:01:31 51°24.279 2°46.548 337.2 13.1 332 27.4
2010-11-26 09:01:35 51°24.291 2°46.537 337 13.2 331 26.1
2010-11-26 09:01:41 51°24.311 2°46.52 337.3 13.2 332 26
2010-11-26 09:01:46 51°24.327 2°46.506 337.4 13.2 330 26
2010-11-26 09:01:51 51°24.343 2°46.492 337.3 13.1 331 26.5
2010-11-26 09:01:55 51°24.356 2°46.481 337.2 13.1 332 26.5
2010-11-26 09:02:00 51°24.371 2°46.467 337.2 13.2 330 26.9
2010-11-26 09:02:06 51°24.391 2°46.451 337.6 13.1 332 27.2
2010-11-26 09:02:11 51°24.407 2°46.437 337.5 13.2 331 26.8
2010-11-26 09:02:15 51°24.42 2°46.426 337.6 13.2 332 26.5
2010-11-26 09:02:20 51°24.436 2°46.412 337.8 13.3 332 26.9
2010-11-26 09:02:26 51°24.455 2°46.396 337.6 13 332 26.8
2010-11-26 09:02:31 51°24.471 2°46.382 337.2 13.2 331 26.7
2010-11-26 09:02:35 51°24.484 2°46.371 337.6 13.3 332 25.1
2010-11-26 09:02:40 51°24.499 2°46.356 336.8 12.9 330 24.7
2010-11-26 09:02:46 51°24.518 2°46.339 336.9 12.9 331 24.5
2010-11-26 09:02:51 51°24.534 2°46.325 336.9 13 331 23.8
2010-11-26 09:02:55 51°24.547 2°46.314 337.2 13.1 331 24.3
2010-11-26 09:03:00 51°24.563 2°46.3 337.3 13.2 331 24.3
2010-11-26 09:03:06 51°24.582 2°46.284 337.5 13.1 332 24.6
2010-11-26 09:03:11 51°24.598 2°46.269 337.2 13.2 330 24.5
2010-11-26 09:03:15 51°24.611 2°46.259 337.9 13.2 333 24.6
2010-11-26 09:03:20 51°24.627 2°46.245 338.1 13.3 332 24.5
2010-11-26 09:03:26 51°24.647 2°46.229 338.2 13.2 333 24.3
2010-11-26 09:03:31 51°24.663 2°46.215 338 13.2 332 24.1
2010-11-26 09:03:35 51°24.676 2°46.204 337.8 13.2 332 24.3
2010-11-26 09:03:41 51°24.695 2°46.187 337.6 13.3 331 24.1
2010-11-26 09:03:46 51°24.712 2°46.173 337.6 13.2 332 24
2010-11-26 09:03:51 51°24.728 2°46.159 338.1 13.3 332 23.5
2010-11-26 09:03:55 51°24.741 2°46.149 337.9 13.3 333 23.8
2010-11-26 09:04:00 51°24.757 2°46.135 337.9 13.2 331 24.2
2010-11-26 09:04:06 51°24.776 2°46.118 337.6 13.2 332 24
2010-11-26 09:04:11 51°24.793 2°46.104 337.5 13.3 331 24
2010-11-26 09:04:15 51°24.806 2°46.093 337.7 13.3 332 24.1
2010-11-26 09:04:20 51°24.822 2°46.079 337.1 13.2 331 23.4
2010-11-26 09:04:26 51°24.841 2°46.063 337.5 13.2 332 23.6
2010-11-26 09:04:31 51°24.857 2°46.048 336.7 13.4 329 23.5
2010-11-26 09:04:35 51°24.87 2°46.037 337.2 13.4 333 23.3
2010-11-26 09:04:40 51°24.886 2°46.022 336.9 13.2 330 23.5
2010-11-26 09:04:46 51°24.906 2°46.006 337.5 13.3 332 24.1
2010-11-26 09:04:51 51°24.921 2°45.992 337 13.2 331 23.4
2010-11-26 09:04:55 51°24.934 2°45.98 336.8 13.1 331 23.9
2010-11-26 09:05:00 51°24.95 2°45.967 337.8 13.2 332 24.1
2010-11-26 09:05:06 51°24.969 2°45.949 336.1 13.3 329 24.1
2010-11-26 09:05:11 51°24.985 2°45.936 337.2 13.2 334 23.9
2010-11-26 09:05:15 51°24.998 2°45.923 336.3 13.3 328 24.2
2010-11-26 09:05:21 51°25.018 2°45.908 337.7 13.2 335 23
2010-11-26 09:05:26 51°25.033 2°45.892 336.8 13.3 328 23.3
2010-11-26 09:05:31 51°25.05 2°45.88 337.4 13.2 335 24.1
2010-11-26 09:05:35 51°25.062 2°45.867 337.3 13.5 328 24.7
2010-11-26 09:05:40 51°25.079 2°45.854 337.4 13.3 334 24.2
2010-11-26 09:05:46 51°25.097 2°45.837 336.9 13.1 330 23.7
2010-11-26 09:05:51 51°25.113 2°45.824 337 12.9 333 24.6
2010-11-26 09:05:55 51°25.126 2°45.812 336.9 13.1 331 24.6
2010-11-26 09:06:00 51°25.143 2°45.798 337.5 13.2 332 24
2010-11-26 09:06:06 51°25.162 2°45.782 337.1 13.2 332 24
2010-11-26 09:06:11 51°25.178 2°45.767 337.3 13.3 331 23.5
2010-11-26 09:06:15 51°25.191 2°45.757 336.9 13.1 333 24.1
2010-11-26 09:06:20 51°25.206 2°45.743 337.7 13 331 24.9
2010-11-26 09:06:26 51°25.226 2°45.727 337.6 13.2 333 24.4
2010-11-26 09:06:31 51°25.242 2°45.712 336.4 13.3 330 24.3
2010-11-26 09:06:35 51°25.255 2°45.702 336.9 13 334 23.8
2010-11-26 09:06:41 51°25.274 2°45.685 337.8 13 332 23.4
2010-11-26 09:06:46 51°25.29 2°45.672 337.2 13.1 332 23.3
2010-11-26 09:06:51 51°25.306 2°45.657 337.4 13 331 21.6
2010-11-26 09:06:55 51°25.318 2°45.647 336.9 13 333 22.8
2010-11-26 09:07:00 51°25.334 2°45.633 337.6 13.1 332 22.4
2010-11-26 09:07:06 51°25.354 2°45.617 337.6 13.2 332 22.5
2010-11-26 09:07:11 51°25.369 2°45.603 337.2 13.1 331 22.9
2010-11-26 09:07:15 51°25.382 2°45.592 337 13.1 332 21.9
2010-11-26 09:07:20 51°25.398 2°45.578 337.6 13 332 23
2010-11-26 09:07:26 51°25.417 2°45.561 336.8 13.1 331 23.6
2010-11-26 09:07:31 51°25.434 2°45.549 337.7 13.1 334 23.7
2010-11-26 09:07:35 51°25.446 2°45.537 337.2 13.2 331 23.6
2010-11-26 09:07:41 51°25.466 2°45.521 336.8 13.1 333 23.3
2010-11-26 09:07:46 51°25.482 2°45.507 337.2 13.1 332 23.2
2010-11-26 09:07:51 51°25.497 2°45.493 336.9 13.2 332 22.8
2010-11-26 09:07:55 51°25.511 2°45.482 336.9 13.1 333 23.4
2010-11-26 09:08:00 51°25.527 2°45.468 337.2 13.2 332 24
2010-11-26 09:08:06 51°25.546 2°45.453 337.6 13.2 334 24.5
2010-11-26 09:08:11 51°25.562 2°45.438 337.1 13.2 331 24.6
2010-11-26 09:08:15 51°25.575 2°45.429 338 13 334 24.9
2010-11-26 09:08:21 51°25.594 2°45.412 337.9 13 331 22.2
2010-11-26 09:08:26 51°25.61 2°45.399 337.9 12.8 334 23.5
2010-11-26 09:08:31 51°25.626 2°45.385 337.6 12.9 330 24
2010-11-26 09:08:35 51°25.638 2°45.375 337.4 12.9 334 24.3
2010-11-26 09:08:40 51°25.654 2°45.362 337.8 12.8 333 23.7
2010-11-26 09:08:46 51°25.673 2°45.346 337.7 12.9 332 24.7
2010-11-26 09:08:51 51°25.689 2°45.333 337.6 13 332 24.2
2010-11-26 09:08:55 51°25.702 2°45.322 337.6 12.8 333 24.9
2010-11-26 09:09:00 51°25.718 2°45.309 338 12.9 333 24.3
2010-11-26 09:09:06 51°25.737 2°45.292 337.5 12.9 331 23.6
2010-11-26 09:09:11 51°25.753 2°45.279 337.1 12.9 333 22.9
2010-11-26 09:09:15 51°25.766 2°45.269 337.2 13 332 23.7
2010-11-26 09:09:20 51°25.781 2°45.256 337.1 12.8 333 23.7
2010-11-26 09:09:26 51°25.8 2°45.239 337.7 13 331 24
2010-11-26 09:09:31 51°25.816 2°45.227 336.9 12.9 332 24.8
2010-11-26 09:09:35 51°25.829 2°45.216 337.2 13 332 24.9
2010-11-26 09:09:40 51°25.845 2°45.202 336.9 13.1 331 23.7
2010-11-26 09:09:46 51°25.864 2°45.186 336.9 13 333 24.2
2010-11-26 09:09:51 51°25.88 2°45.172 336.9 13 332 25.3
2010-11-26 09:09:55 51°25.893 2°45.162 337.8 12.9 334 24.7
2010-11-26 09:10:00 51°25.908 2°45.148 337.5 13.1 332 25.2
2010-11-26 09:10:06 51°25.928 2°45.132 337.1 13.1 332 25.1
2010-11-26 09:10:11 51°25.944 2°45.119 337.1 12.9 333 24.8
2010-11-26 09:10:15 51°25.956 2°45.107 336.3 13.1 331 24.7
2010-11-26 09:10:20 51°25.972 2°45.094 336.9 13 332 24.3
2010-11-26 09:10:26 51°25.991 2°45.078 337.3 12.9 333 24
2010-11-26 09:10:31 51°26.008 2°45.065 337.2 13.1 332 24.1
2010-11-26 09:10:35 51°26.02 2°45.055 337.2 13 333 24
2010-11-26 09:10:41 51°26.04 2°45.039 337.5 13.1 332 24.1
2010-11-26 09:10:45 51°26.052 2°45.029 337.4 13.1 333 23.3
2010-11-26 09:10:51 51°26.072 2°45.012 337 13 333 22.7
2010-11-26 09:10:55 51°26.084 2°45.001 336.9 13.2 331 24.2
2010-11-26 09:11:00 51°26.101 2°44.988 336.7 13.3 333 25
2010-11-26 09:11:06 51°26.12 2°44.971 337 13.3 332 25.8
2010-11-26 09:11:11 51°26.136 2°44.958 337 13.2 332 24.6
2010-11-26 09:11:15 51°26.149 2°44.946 337 13.3 332 24.2
2010-11-26 09:11:20 51°26.165 2°44.933 337.4 13.2 333 23.5
2010-11-26 09:11:26 51°26.184 2°44.916 337.7 13.2 332 25.5
2010-11-26 09:11:31 51°26.2 2°44.903 337.6 13.2 331 25.7
2010-11-26 09:11:35 51°26.213 2°44.892 337.5 13.2 332 25.5
2010-11-26 09:11:41 51°26.233 2°44.876 337.2 13.1 333 26
2010-11-26 09:11:46 51°26.249 2°44.862 337.6 13.2 332 25.7
2010-11-26 09:11:51 51°26.265 2°44.848 337 13.2 332 26.3
2010-11-26 09:11:55 51°26.278 2°44.837 338 13.2 334 25.9
2010-11-26 09:12:00 51°26.294 2°44.823 337.1 13.1 331 26.6
2010-11-26 09:12:06 51°26.313 2°44.806 336.9 12.9 332 26.2
2010-11-26 09:12:11 51°26.329 2°44.793 337 13.1 332 26
2010-11-26 09:12:15 51°26.342 2°44.782 337.5 13.1 332 25.8
2010-11-26 09:12:21 51°26.361 2°44.765 337.2 13 332 25.1
2010-11-26 09:12:26 51°26.377 2°44.752 337.6 13 332 25.2
2010-11-26 09:12:31 51°26.393 2°44.738 337.8 13.1 332 25.7
2010-11-26 09:12:35 51°26.406 2°44.727 337.8 13.1 333 25.3
2010-11-26 09:12:40 51°26.422 2°44.714 338 13 332 26.2
2010-11-26 09:12:46 51°26.441 2°44.698 337.5 13.1 331 26.6
2010-11-26 09:12:51 51°26.457 2°44.684 337.7 13.1 333 26.8
2010-11-26 09:12:55 51°26.47 2°44.674 337.2 13 333 26.2
2010-11-26 09:13:00 51°26.486 2°44.664 339.5 12.7 338 27.1
2010-11-26 09:13:06 51°26.506 2°44.654 344.8 12.6 343 27.6
2010-11-26 09:13:11 51°26.523 2°44.646 347.2 12.6 344 27.4
2010-11-26 09:13:15 51°26.537 2°44.644 350.6 12.4 353 25.8
2010-11-26 09:13:20 51°26.554 2°44.644 357.9 12.2 -999 26.3
2010-11-26 09:13:26 51°26.574 2°44.648 5.2 12.1 8 27
2010-11-26 09:13:31 51°26.589 2°44.656 14.8 11.8 17 27.6
2010-11-26 09:13:35 51°26.601 2°44.666 22.5 11.7 26 27.4
2010-11-26 09:13:40 51°26.615 2°44.678 28.1 11.5 29 27.2
2010-11-26 09:13:46 51°26.63 2°44.697 35.3 11.7 37 26.9
2010-11-26 09:13:51 51°26.644 2°44.71 36.9 11.9 32 26.8
2010-11-26 09:13:55 51°26.655 2°44.723 36.6 11.9 35 26.1
2010-11-26 09:14:00 51°26.667 2°44.741 40 11.9 41 27.4
2010-11-26 09:14:06 51°26.683 2°44.76 40.7 12.1 37 27.6
2010-11-26 09:14:11 51°26.695 2°44.779 42.2 12 44 26.6
2010-11-26 09:14:15 51°26.706 2°44.792 43.3 11.9 40 27.1
2010-11-26 09:14:21 51°26.719 2°44.815 45.3 11.9 46 27.2
2010-11-26 09:14:26 51°26.732 2°44.833 45.1 12.1 43 28
2010-11-26 09:14:31 51°26.742 2°44.853 46.2 11.9 48 27.6
2010-11-26 09:14:35 51°26.751 2°44.869 48.4 12 48 26.1
2010-11-26 09:14:41 51°26.764 2°44.893 49.5 12.1 49 26.4
2010-11-26 09:14:46 51°26.774 2°44.916 51.3 12.1 54 27.1
2010-11-26 09:14:51 51°26.785 2°44.936 54 11.9 51 27.7
2010-11-26 09:14:55 51°26.794 2°44.952 51.4 12.1 49 26.6
2010-11-26 09:15:00 51°26.803 2°44.975 53.6 12.2 56 26.6
2010-11-26 09:15:06 51°26.815 2°45 54.1 12 52 26.6
2010-11-26 09:15:11 51°26.823 2°45.023 55.7 11.9 58 26.6
2010-11-26 09:15:15 51°26.83 2°45.041 57.4 11.8 59 27.4
2010-11-26 09:15:21 51°26.84 2°45.068 57.9 12 61 27.4
2010-11-26 09:15:25 51°26.847 2°45.086 59.5 11.9 60 27.1
2010-11-26 09:15:31 51°26.856 2°45.114 61.7 12 62 28.1
2010-11-26 09:15:35 51°26.864 2°45.132 58 11.9 57 27.1
2010-11-26 09:15:40 51°26.871 2°45.156 61.2 12.1 62 27.3
2010-11-26 09:15:46 51°26.883 2°45.182 57.4 12.1 54 27.2
2010-11-26 09:15:51 51°26.891 2°45.206 58.2 12.1 63 27.7
2010-11-26 09:15:55 51°26.9 2°45.222 56.9 12.3 51 26.9
2010-11-26 09:16:00 51°26.907 2°45.247 58.4 12.3 63 26.8
2010-11-26 09:16:06 51°26.919 2°45.273 59 12 55 27.9
2010-11-26 09:16:11 51°26.926 2°45.298 59 12.2 65 28.1
2010-11-26 09:16:15 51°26.934 2°45.315 60.1 12.1 58 27.9
2010-11-26 09:16:20 51°26.943 2°45.337 55.8 11.9 56 26.9
2010-11-26 09:16:26 51°26.955 2°45.363 56 12.1 55 27.3
2010-11-26 09:16:31 51°26.962 2°45.387 58.2 12.1 60 26.6
2010-11-26 09:16:35 51°26.969 2°45.405 58.3 12.2 58 27.2
2010-11-26 09:16:41 51°26.979 2°45.434 59.3 12.2 61 27.3
2010-11-26 09:16:46 51°26.988 2°45.456 60.7 12.1 59 27.3
2010-11-26 09:16:51 51°26.996 2°45.48 60.1 12.1 61 27.3
2010-11-26 09:16:55 51°27.002 2°45.499 61.3 12.2 63 27.3
2010-11-26 09:17:00 51°27.01 2°45.523 62.2 12.2 62 27.5
2010-11-26 09:17:06 51°27.02 2°45.551 62.1 12 61 27.7
2010-11-26 09:17:11 51°27.026 2°45.576 62.1 12.1 65 28.1
2010-11-26 09:17:15 51°27.033 2°45.594 62.3 12.2 59 28.4
2010-11-26 09:17:20 51°27.042 2°45.618 60.3 12.1 62 28
2010-11-26 09:17:26 51°27.051 2°45.646 62.4 12.1 61 27.5
2010-11-26 09:17:31 51°27.059 2°45.67 60.8 12.2 61 28.5
2010-11-26 09:17:35 51°27.066 2°45.689 61.1 12.2 60 28.3
2010-11-26 09:17:40 51°27.075 2°45.712 59.6 12.2 61 28.7
2010-11-26 09:17:46 51°27.085 2°45.74 60.7 12.1 60 28.9
2010-11-26 09:17:51 51°27.093 2°45.763 58.7 12.1 60 29.4
2010-11-26 09:17:55 51°27.099 2°45.783 60.6 12.2 62 29.3
2010-11-26 09:18:00 51°27.109 2°45.804 59.6 12 58 28.8
2010-11-26 09:18:06 51°27.118 2°45.833 60.3 12.2 62 28.8
2010-11-26 09:18:11 51°27.127 2°45.856 59.6 12.2 58 28.5
2010-11-26 09:18:15 51°27.134 2°45.875 59.6 12.1 61 28.7
2010-11-26 09:18:20 51°27.143 2°45.898 60.3 12.3 58 28.9
2010-11-26 09:18:26 51°27.153 2°45.926 58.9 12.1 60 28.6
2010-11-26 09:18:31 51°27.162 2°45.949 60.7 12.1 59 28.4
2010-11-26 09:18:35 51°27.17 2°45.966 57.4 12.3 54 28.1
2010-11-26 09:18:41 51°27.179 2°45.996 59.6 12.3 63 28.4
2010-11-26 09:18:46 51°27.189 2°46.017 59.4 12.3 53 28.3
2010-11-26 09:18:51 51°27.196 2°46.042 58.9 12.1 64 28.9
2010-11-26 09:18:55 51°27.205 2°46.059 58.9 12.2 54 29
2010-11-26 09:19:01 51°27.215 2°46.088 57.9 12.2 60 28.3
2010-11-26 09:19:06 51°27.224 2°46.11 58.6 12.1 58 29
2010-11-26 09:19:11 51°27.232 2°46.134 58.6 12.3 60 29.6
2010-11-26 09:19:15 51°27.239 2°46.153 59.6 12.4 60 28.7
2010-11-26 09:19:20 51°27.249 2°46.176 58.9 12.3 57 28.7
2010-11-26 09:19:26 51°27.259 2°46.204 59.7 12.3 60 29.2
2010-11-26 09:19:31 51°27.268 2°46.227 58.9 12.3 57 29.6
2010-11-26 09:19:35 51°27.274 2°46.247 59.4 12.4 62 29.9
2010-11-26 09:19:40 51°27.284 2°46.269 58.8 12.3 55 28.8
2010-11-26 09:19:46 51°27.293 2°46.298 60.3 12.3 63 29.2
2010-11-26 09:19:51 51°27.303 2°46.32 58.4 12.2 55 28.8
2010-11-26 09:19:55 51°27.31 2°46.339 58 12.3 61 29.2
2010-11-26 09:20:00 51°27.319 2°46.362 58.3 12.1 56 29.5
2010-11-26 09:20:05 51°27.327 2°46.386 59.2 12.2 63 29.9
2010-11-26 09:20:11 51°27.339 2°46.412 58.3 12.2 53 29.7
2010-11-26 09:20:15 51°27.345 2°46.431 58.2 12.1 62 30.2
2010-11-26 09:20:20 51°27.354 2°46.454 58.9 12.2 56 30.3
2010-11-26 09:20:26 51°27.365 2°46.481 57.6 12.2 58 31.3
2010-11-26 09:20:31 51°27.374 2°46.504 58.6 12.2 59 32.1
2010-11-26 09:20:35 51°27.382 2°46.522 57.4 12.3 55 32.1
2010-11-26 09:20:40 51°27.39 2°46.547 58.8 12.3 62 30.7
2010-11-26 09:20:46 51°27.401 2°46.573 58.5 12.3 55 30.1
2010-11-26 09:20:51 51°27.411 2°46.596 56.7 12.3 57 30.6
2010-11-26 09:20:55 51°27.417 2°46.615 58.5 12.2 60 30.8
2010-11-26 09:21:00 51°27.427 2°46.638 58 12.3 56 31.9
2010-11-26 09:21:06 51°27.437 2°46.666 57.6 12.3 59 31.5
2010-11-26 09:21:11 51°27.447 2°46.689 58.4 12.4 56 30.9
2010-11-26 09:21:15 51°27.455 2°46.707 57.7 12.4 57 30.7
2010-11-26 09:21:20 51°27.463 2°46.73 57.6 12 57 30.4
2010-11-26 09:21:26 51°27.473 2°46.758 57.9 12 60 31
2010-11-26 09:21:31 51°27.483 2°46.781 58.8 12.3 58 31.6
2010-11-26 09:21:35 51°27.491 2°46.798 57.5 12.2 54 30.3
2010-11-26 09:21:41 51°27.5 2°46.827 60.9 12 61 29.8
2010-11-26 09:21:46 51°27.51 2°46.848 56.9 12.1 53 29.3
2010-11-26 09:21:51 51°27.52 2°46.87 55.6 12 56 29.1
2010-11-26 09:21:55 51°27.527 2°46.888 56.2 12 58 30.6
2010-11-26 09:22:00 51°27.536 2°46.91 57.6 12 56 30.6